Camp Union, Washington
Current Conditions -  °F | °C
As of 10:15 PM on Tuesday 21 Oct 2014 (Local Time) from KPWT Reporting Station
Overcast Overcast  
Wind Chill: 55°   Ceiling: 6000
Heat Index: 55°   Visibility: 10mi
Dew Point: 50°   Wind: 12mph
Humidity: 82%   Direction: 180°S
Pressure: 29.78"   Gusts: NA
Location:  47.5691°N, 122.818°W
Report Text: KPWT 220515Z AUTO 18010KT 10SM OVC060 13/10 A2978 RMK AO1
Loading
Personal Weather Stations






























Interactive Weather Map
Tropical Storm Tracking
New forecast layout! Learn more

10-Day Weather Forecast

Advertisements
Track Severe Weather on mobile